createdAt,value
2022-09-07T00:06:41.614Z,101238.97
2022-09-07T00:14:15.184Z,101228.19
2022-09-07T00:21:50.294Z,101242.63
2022-09-07T00:29:24.153Z,101222.00
2022-09-07T00:36:59.284Z,101217.53
2022-09-07T00:44:51.566Z,101221.13
2022-09-07T00:52:30.135Z,101219.34
2022-09-07T01:00:06.664Z,101224.75
2022-09-07T01:07:42.500Z,101214.91
2022-09-07T01:15:16.378Z,101214.94
2022-09-07T01:23:22.366Z,101211.47
2022-09-07T01:31:00.210Z,101203.50
2022-09-07T01:38:42.187Z,101190.94
2022-09-07T01:46:22.061Z,101202.63
2022-09-07T01:54:00.183Z,101202.66
2022-09-07T02:01:40.256Z,101200.88
2022-09-07T02:09:20.878Z,101204.50
2022-09-07T02:17:00.015Z,101201.78
2022-09-07T02:24:38.146Z,101194.59
2022-09-07T02:32:13.342Z,101176.63
2022-09-07T02:39:47.835Z,101182.94
2022-09-07T02:47:35.016Z,101186.53
2022-09-07T02:55:18.785Z,101180.22
2022-09-07T03:03:09.093Z,101185.63
2022-09-07T03:10:44.203Z,101181.13
2022-09-07T03:18:19.365Z,101179.34
2022-09-07T03:25:53.159Z,101179.34
2022-09-07T03:33:28.268Z,101153.28
2022-09-07T03:41:02.505Z,101154.19
2022-09-07T03:48:39.132Z,101153.28
2022-09-07T03:56:19.319Z,101141.63
2022-09-07T04:04:01.773Z,101149.69
2022-09-07T04:11:36.141Z,101137.13
2022-09-07T04:19:11.288Z,101138.84
2022-09-07T04:26:45.616Z,101137.06
2022-09-07T04:34:20.773Z,101145.19
2022-09-07T04:41:54.997Z,101136.16
2022-09-07T04:49:30.429Z,101125.38
2022-09-07T04:57:04.267Z,101130.75
2022-09-07T05:04:39.458Z,101112.81
2022-09-07T05:12:13.179Z,101120.00
2022-09-07T05:19:49.226Z,101113.72
2022-09-07T05:27:23.050Z,101110.19
2022-09-07T05:34:58.228Z,101106.59
2022-09-07T05:42:31.923Z,101114.69
2022-09-07T05:50:08.996Z,101108.41
2022-09-07T05:57:42.993Z,101120.06
2022-09-07T06:05:18.591Z,101122.75
2022-09-07T06:12:53.542Z,101112.84
2022-09-07T06:20:28.788Z,101118.22
2022-09-07T06:28:02.666Z,101105.63
2022-09-07T06:35:37.905Z,101116.34
2022-09-07T06:43:11.721Z,101102.84
2022-09-07T06:50:56.319Z,101102.81
2022-09-07T06:58:30.375Z,101094.69
2022-09-07T07:06:06.513Z,101093.63
2022-09-07T07:13:41.628Z,101080.88
2022-09-07T07:21:17.036Z,101088.72
2022-09-07T07:29:00.777Z,101085.78
2022-09-07T07:36:37.567Z,101083.94
2022-09-07T07:44:13.270Z,101070.19
2022-09-07T07:59:42.482Z,101063.25
2022-09-07T08:07:18.800Z,101075.00
2022-09-07T08:14:54.066Z,101072.25
2022-09-07T08:22:32.983Z,101076.63
2022-09-07T08:30:10.582Z,101061.50
2022-09-07T08:37:45.691Z,101057.72
2022-09-07T08:45:24.302Z,101063.66
2022-09-07T08:53:03.294Z,101034.75
2022-09-07T09:00:39.414Z,101035.91
2022-09-07T09:08:28.387Z,101042.69
2022-09-07T09:16:07.075Z,101045.34
2022-09-07T09:23:44.395Z,101032.97
2022-09-07T09:31:20.222Z,101038.38
2022-09-07T09:38:56.433Z,101032.94
2022-09-07T09:46:33.557Z,101012.72
2022-09-07T09:54:24.176Z,101012.28
2022-09-07T10:09:55.579Z,100998.13
2022-09-07T10:17:31.794Z,100995.97
2022-09-07T10:25:30.523Z,100994.91
2022-09-07T10:33:09.115Z,100989.41
2022-09-07T10:40:48.580Z,100986.94
2022-09-07T10:48:31.090Z,100976.22
2022-09-07T10:56:10.898Z,100969.28
2022-09-07T11:03:58.243Z,100968.16
2022-09-07T11:19:38.160Z,100968.69
2022-09-07T11:27:19.995Z,100965.69
2022-09-07T11:34:58.581Z,100973.06
2022-09-07T11:42:45.993Z,100982.06
2022-09-07T11:50:23.082Z,100971.91
2022-09-07T11:58:25.052Z,100970.78
2022-09-07T12:06:22.205Z,100963.72
2022-09-07T12:14:16.308Z,100953.72
2022-09-07T12:21:56.911Z,100940.53
2022-09-07T12:29:32.651Z,100945.03
2022-09-07T12:37:44.780Z,100934.66
2022-09-07T12:45:56.637Z,100918.34
2022-09-07T12:53:35.550Z,100918.28
2022-09-07T13:01:21.357Z,100910.84
2022-09-07T13:09:30.489Z,100898.81
2022-09-07T13:17:41.595Z,100909.38
2022-09-07T13:25:48.310Z,100897.41
2022-09-07T13:33:48.518Z,100898.88
2022-09-07T13:41:27.033Z,100891.22
2022-09-07T13:49:08.227Z,100891.69
2022-09-07T13:56:54.076Z,100882.38
2022-09-07T14:04:36.072Z,100875.19
2022-09-07T14:12:16.912Z,100873.88
2022-09-07T14:19:51.922Z,100880.09
2022-09-07T14:27:33.561Z,100871.53
2022-09-07T14:35:12.792Z,100863.34
2022-09-07T14:42:49.813Z,100851.41
2022-09-07T14:50:27.531Z,100849.91
2022-09-07T14:58:23.126Z,100843.91
2022-09-07T15:06:01.204Z,100854.56
2022-09-07T15:13:39.936Z,100829.38
2022-09-07T15:21:13.737Z,100834.03
2022-09-07T15:36:45.019Z,100841.31
2022-09-07T15:44:25.025Z,100846.56
2022-09-07T15:52:07.110Z,100829.56
2022-09-07T15:59:42.208Z,100831.38
2022-09-07T16:07:15.886Z,100816.06
2022-09-07T16:14:56.435Z,100808.25
2022-09-07T16:30:26.087Z,100789.44
2022-09-07T16:46:04.666Z,100780.97
2022-09-07T16:53:39.739Z,100789.50
2022-09-07T17:01:17.383Z,100789.19
2022-09-07T17:08:51.503Z,100789.72
2022-09-07T17:16:28.898Z,100804.53
2022-09-07T17:24:04.207Z,100798.63
2022-09-07T17:39:33.877Z,100789.47
2022-09-07T17:47:09.415Z,100784.72
2022-09-07T17:54:43.032Z,100788.00
2022-09-07T18:02:18.028Z,100803.72
2022-09-07T18:09:52.564Z,100818.72
2022-09-07T18:17:28.151Z,100826.81
2022-09-07T18:25:03.479Z,100834.94
2022-09-07T18:32:38.768Z,100834.63
2022-09-07T18:40:12.707Z,100846.44
2022-09-07T18:47:47.898Z,100844.09
2022-09-07T18:55:21.748Z,100843.63
2022-09-07T19:02:56.770Z,100840.13
2022-09-07T19:10:30.526Z,100829.41
2022-09-07T19:18:06.564Z,100841.22
2022-09-07T19:25:43.149Z,100839.72
2022-09-07T19:33:18.580Z,100845.09
2022-09-07T19:40:58.873Z,100838.88
2022-09-07T19:48:33.913Z,100844.44
2022-09-07T19:56:09.627Z,100830.88
2022-09-07T20:03:46.449Z,100827.22
2022-09-07T20:11:20.336Z,100819.09
2022-09-07T20:18:55.628Z,100811.19
2022-09-07T20:26:30.331Z,100781.41
2022-09-07T20:34:05.514Z,100778.78
2022-09-07T20:41:39.304Z,100771.69
2022-09-07T20:49:14.405Z,100779.00
2022-09-07T20:56:48.087Z,100775.47
2022-09-07T21:04:26.426Z,100771.94
2022-09-07T21:12:00.078Z,100782.94
2022-09-07T21:19:36.887Z,100786.78
2022-09-07T21:27:10.490Z,100776.50
2022-09-07T21:34:45.511Z,100777.56
2022-09-07T21:42:19.017Z,100771.34
2022-09-07T21:49:54.155Z,100779.63
2022-09-07T21:57:27.954Z,100775.41
2022-09-07T22:05:02.967Z,100781.06
2022-09-07T22:12:36.714Z,100772.22
2022-09-07T22:20:12.855Z,100774.25
2022-09-07T22:27:46.549Z,100778.06
2022-09-07T22:35:22.030Z,100780.25
2022-09-07T22:42:55.643Z,100765.91
2022-09-07T22:50:30.696Z,100770.66
2022-09-07T22:58:04.183Z,100749.13
2022-09-07T23:05:39.676Z,100751.97
2022-09-07T23:13:16.802Z,100750.19
2022-09-07T23:20:52.005Z,100737.75
2022-09-07T23:28:25.525Z,100719.84
2022-09-07T23:36:03.167Z,100724.41
2022-09-07T23:43:36.974Z,100718.38
2022-09-07T23:51:12.888Z,100714.91
2022-09-07T23:58:46.578Z,100725.97
